Copiapo, Chile

7:00 PM CLT on May 22, 2015 (GMT -0300)
Desierto de Atacama Airpo | | Change Station
CLOSE
Current Station
Airport
Location: Desierto de Atacama Airpo,
Elevation: 689 ft
Nearby Weather Stations

Elev 689 ft 27.26 °S, 70.77 °W | Updated 1 hour ago

Mostly Cloudy
Mostly Cloudy
59 °F
Feels Like 59 °F
N
10
Wind Variable Wind from West

Today
High -- | Low -- °F
--% Chance of Precip.
Yesterday
High -- | Low -- °F
Precip. -- in
8:18 AM 6:58 PM
Waxing Crescent, 24% visible
Pressure 30.04 in
Visibility 4.3 miles
Clouds Mostly Cloudy 1500 ft
Dew Point 52 °F
Humidity 77%
Rainfall 0.00 in
Snow Depth Not available.
UV 0 out of 12
Pollen Not available.
Air Quality Not available.
Flu Activity Not available.
METAR SCAT 222100Z 27009KT 7000 BKN015 15/11 Q1017

More Conditions Fewer Conditions

Pressure 30.04 in
Visibility 4.3 miles
Clouds Mostly Cloudy 1500 ft
Dew Point 52 °F
Humidity 77%
Rainfall 0.00 in
Snow Depth Not available.
UV 0 out of 12
Pollen Not available.
Air Quality Not available.
Flu Activity Not available.
METAR SCAT 222100Z 27009KT 7000 BKN015 15/11 Q1017

More Conditions Fewer Conditions

10-Day Weather Forecast

Almanac

Astronomy

May. 22, 2015 Rise Set
Actual Time
Civil Twilight
Nautical Twilight
Astronomical Twilight
Moon
Length of Visible Light
Length of Day
Tomorrow will be .
, % of the Moon is Illuminated

Today's Extremes

Country Highs Country Lows

Community

WunderPhotos

Upload Photos

1,823,318 photos uploaded!

WunderBlogs® & News

Nearby

Air Quality

  Air Quality AQ Index Pollutant
Not available.

Snow Depth

Station Depth Elevation

Earthquake Activity

City Distance Mag. Time & Date
Minimum magnitude displayed is 2.5.

Coastal Water Temperatures

Place Temperature

Stations

Nearby Weather Stations

Station Location Temp. Windchill Dew Point Humidity Wind Precip. Elev Updated Type